Terminal Aerodrome Forecast
Issued by NWS Amarillo, TX

Home | Current Version | Previous Version | Text Only | Print | Product List | Glossary On
Versions: 1 2 3 4 5 6 7 8 9 10 11 12 13 14
193
FTUS44 KAMA 172336
TAFGUY
TAF
KGUY 172336Z 1800/1824 16010KT P6SM SCT050 SCT120 BKN300
      TEMPO 1801/1803 VRB25G35KT 5SM TSRA BKN040CB
     FM181400 24009KT P6SM SCT060
     FM182100 01008KT P6SM SCT060=

USA.gov is the U.S. government's official web portal to all federal, state and local government web resources and services.